Meteorología y climatología de Navarra
Datos de la estación - Meteo Navarra

Estación de Carrascal GN

Altitud 568 m.


Datos desde el 15/02/2020 hasta el 16/02/2020 en horario solar
Los datos son PROVISIONALES

Anterior Página 1 de 1 Siguiente Descargar: Formato para Excel 2000 o superior   Formato csv   Formato para OpenOffice Calc
Fecha Temperatura Humedad relativa Radiación global Insolación Precipitación Vel. viento 10 m Vel. viento 10 m Dir. viento 10 m
ºC % W/m² s l/m² m/s km/h º
15/02/2020 0:00 4.9 91 0.0 0 0.0 3.3 11.9 29
15/02/2020 0:10 4.8 90 0.0 0 0.0 3.3 12.0 23
15/02/2020 0:20 4.4 92 0.0 0 0.0 2.5 9.1 24
15/02/2020 0:30 4.9 91 0.0 0 0.0 2.4 8.6 19
15/02/2020 0:40 5.0 89 0.0 0 0.0 2.0 7.2 31
15/02/2020 0:50 4.9 90 0.0 0 0.0 2.2 8.0 46
15/02/2020 1:00 5.1 89 0.0 0 0.0 2.1 7.6 26
15/02/2020 1:10 4.9 89 0.0 0 0.0 1.9 6.8 29
15/02/2020 1:20 4.9 89 0.0 0 0.0 2.0 7.0 34
15/02/2020 1:30 4.9 90 0.0 0 0.0 2.2 8.0 39
15/02/2020 1:40 5.4 88 0.0 0 0.0 2.7 9.7 40
15/02/2020 1:50 5.3 88 0.0 0 0.0 2.5 8.9 41
15/02/2020 2:00 5.1 88 0.0 0 0.0 2.3 8.1 42
15/02/2020 2:10 5.0 88 0.0 0 0.0 2.2 7.9 31
15/02/2020 2:20 4.7 88 0.0 0 0.0 2.7 9.7 16
15/02/2020 2:30 4.4 90 0.0 0 0.0 2.9 10.6 36
15/02/2020 2:40 4.4 91 0.0 0 0.0 3.5 12.5 37
15/02/2020 2:50 3.6 92 0.0 0 0.0 3.0 10.7 27
15/02/2020 3:00 3.5 93 0.0 0 0.0 2.5 9.1 25
15/02/2020 3:10 3.9 93 0.0 0 0.0 2.3 8.2 23
15/02/2020 3:20 4.0 92 0.0 0 0.0 3.1 11.2 50
15/02/2020 3:30 3.8 91 0.0 0 0.0 2.7 9.6 29
15/02/2020 3:40 3.9 92 0.0 0 0.0 2.8 10.1 20
15/02/2020 3:50 4.2 91 0.0 0 0.0 2.0 7.3 33
15/02/2020 4:00 3.8 91 0.0 0 0.0 1.6 5.8 55
15/02/2020 4:10 3.9 92 0.0 0 0.0 2.4 8.5 64
15/02/2020 4:20 3.8 93 0.0 0 0.0 1.9 6.8 57
15/02/2020 4:30 4.2 91 0.0 0 0.0 0.8 3.0 16
15/02/2020 4:40 4.1 91 0.0 0 0.0 1.6 5.7 6
15/02/2020 4:50 3.3 93 0.0 0 0.0 2.5 9.0 64
15/02/2020 5:00 3.8 92 0.0 0 0.0 1.7 6.2 36
15/02/2020 5:10 3.4 92 0.0 0 0.0 1.2 4.4 43
15/02/2020 5:20 3.6 94 0.0 0 0.0 0.9 3.2 9
15/02/2020 5:30 3.5 91 0.0 0 0.0 0.3 1.2 352
15/02/2020 5:40 3.0 94 0.0 0 0.0 1.0 3.5 170
15/02/2020 5:50 2.8 96 0.0 0 0.0 1.5 5.3 197
15/02/2020 6:00 3.1 96 0.0 0 0.0 1.3 4.8 209
15/02/2020 6:10 3.0 95 0.0 0 0.0 0.5 1.7 135
15/02/2020 6:20 3.0 95 0.0 0 0.0 0.6 2.1 136
15/02/2020 6:30 2.6 95 0.0 0 0.0 1.5 5.5 156
15/02/2020 6:40 2.1 95 0.0 0 0.0 2.3 8.1 204
15/02/2020 6:50 2.9 96 0.0 0 0.0 2.8 10.2 228
15/02/2020 7:00 3.6 92 0.0 0 0.0 1.6 5.8 213
15/02/2020 7:10 2.9 93 0.0 0 0.0 1.2 4.4 182
15/02/2020 7:20 3.2 96 0.0 0 0.0 1.3 4.8 136
15/02/2020 7:30 3.5 94 18.0 0 0.0 0.3 1.2 117
15/02/2020 7:40 3.0 93 27.5 0 0.0 0.9 3.1 327
15/02/2020 7:50 2.6 95 33.0 0 0.0 1.3 4.6 60
15/02/2020 8:00 2.7 95 74.8 328 0.0 1.6 5.7 35
15/02/2020 8:10 3.6 95 127.0 600 0.0 1.7 6.0 42
15/02/2020 8:20 4.1 93 155.8 600 0.0 1.1 4.0 65
15/02/2020 8:30 5.3 91 184.6 600 0.0 0.6 2.1 291
15/02/2020 8:40 5.7 89 216.0 600 0.0 1.4 5.0 35
15/02/2020 8:50 6.3 86 245.8 600 0.0 0.5 1.9 58
15/02/2020 9:00 7.0 88 276.8 600 0.0 1.9 7.0 237
15/02/2020 9:10 7.7 84 304.4 600 0.0 1.7 6.1 52
15/02/2020 9:20 8.0 83 325.6 600 0.0 1.6 5.8 143
15/02/2020 9:30 9.0 82 349.1 600 0.0 2.5 9.1 233
15/02/2020 9:40 8.8 84 375.3 600 0.0 3.8 13.8 242
15/02/2020 9:50 9.1 84 401.2 600 0.0 4.8 17.2 231
15/02/2020 10:00 9.8 81 421.4 600 0.0 3.3 12.0 221
15/02/2020 10:10 10.1 80 445.0 600 0.0 4.2 15.2 230
15/02/2020 10:20 10.2 78 470.6 600 0.0 4.8 17.3 231
15/02/2020 10:30 10.5 78 490.3 600 0.0 4.7 16.8 237
15/02/2020 10:40 10.8 77 505.0 600 0.0 4.7 16.7 236
15/02/2020 10:50 11.4 76 526.5 600 0.0 4.9 17.5 241
15/02/2020 11:00 11.6 75 544.2 600 0.0 4.7 16.8 240
15/02/2020 11:10 12.6 74 559.9 600 0.0 4.8 17.2 228
15/02/2020 11:20 12.9 71 573.0 600 0.0 5.2 18.6 224
15/02/2020 11:30 13.2 70 583.2 600 0.0 4.7 16.8 209
15/02/2020 11:40 13.5 68 590.1 600 0.0 4.8 17.2 196
15/02/2020 11:50 13.9 67 599.8 600 0.0 4.7 17.0 199
15/02/2020 12:00 13.9 67 606.4 600 0.0 5.2 18.8 200
15/02/2020 12:10 14.1 67 608.5 600 0.0 5.6 20.2 212
15/02/2020 12:20 14.5 66 611.2 600 0.0 5.7 20.6 209
15/02/2020 12:30 14.5 65 619.5 600 0.0 5.3 19.2 199
15/02/2020 12:40 14.8 65 592.1 600 0.0 4.8 17.4 207
15/02/2020 12:50 15.3 64 580.1 600 0.0 5.2 18.8 206
15/02/2020 13:00 15.3 64 558.4 600 0.0 5.1 18.5 209
15/02/2020 13:10 15.4 63 582.8 600 0.0 5.7 20.4 206
15/02/2020 13:20 15.3 63 490.5 600 0.0 6.6 23.9 208
15/02/2020 13:30 15.2 63 407.3 600 0.0 6.1 22.1 210
15/02/2020 13:40 14.4 66 318.3 522 0.0 6.7 24.0 206
15/02/2020 13:50 14.5 66 368.8 600 0.0 7.3 26.2 201
15/02/2020 14:00 14.7 66 377.5 600 0.0 6.6 23.7 207
15/02/2020 14:10 14.7 66 347.0 600 0.0 5.5 19.7 212
15/02/2020 14:20 14.7 67 325.7 600 0.0 5.3 19.0 223
15/02/2020 14:30 14.6 68 307.7 600 0.0 4.7 16.9 220
15/02/2020 14:40 14.7 68 283.0 600 0.0 5.2 18.6 209
15/02/2020 14:50 14.6 68 267.1 600 0.0 4.9 17.5 207
15/02/2020 15:00 14.3 66 250.7 600 0.0 5.1 18.4 204
15/02/2020 15:10 14.5 67 249.5 600 0.0 5.2 18.8 207
15/02/2020 15:20 14.3 69 202.3 286 0.0 4.9 17.7 208
15/02/2020 15:30 14.1 70 166.2 0 0.0 4.9 17.6 209
15/02/2020 15:40 13.5 72 145.4 0 0.0 4.3 15.5 251
15/02/2020 15:50 12.7 76 131.9 0 0.0 4.6 16.4 261
15/02/2020 16:00 12.5 76 120.4 0 0.0 4.2 15.1 268
15/02/2020 16:10 12.5 77 92.0 0 0.0 4.4 15.9 264
15/02/2020 16:20 12.3 77 74.8 0 0.0 3.4 12.3 260
15/02/2020 16:30 11.9 79 64.5 0 0.0 3.1 11.2 244
15/02/2020 16:40 11.6 80 51.6 0 0.0 2.6 9.4 216
15/02/2020 16:50 11.4 81 35.6 0 0.0 3.0 10.8 214
15/02/2020 17:00 11.2 82 27.5 0 0.0 2.9 10.5 220
15/02/2020 17:10 10.7 84 26.2 0 0.0 3.6 12.8 231
15/02/2020 17:20 10.5 84 23.1 0 0.0 4.0 14.5 213
15/02/2020 17:30 10.6 83 5.0 0 0.0 3.8 13.6 234
15/02/2020 17:40 10.5 83 0.0 0 0.0 3.7 13.4 230
15/02/2020 17:50 10.6 83 0.0 0 0.0 4.4 15.8 222
15/02/2020 18:00 10.3 83 0.0 0 0.0 4.0 14.3 239
15/02/2020 18:10 10.3 84 0.0 0 0.0 3.6 13.1 237
15/02/2020 18:20 9.7 86 0.0 0 0.0 3.5 12.5 235
15/02/2020 18:30 9.5 87 0.0 0 0.0 3.6 13.1 233
15/02/2020 18:40 9.0 88 0.0 0 0.0 4.0 14.3 223
15/02/2020 18:50 9.5 87 0.0 0 0.0 4.2 15.3 217
15/02/2020 19:00 9.7 84 0.0 0 0.0 3.7 13.3 233
15/02/2020 19:10 9.6 84 0.0 0 0.0 4.3 15.4 232
15/02/2020 19:20 9.1 85 0.0 0 0.0 4.3 15.4 218
15/02/2020 19:30 9.2 86 0.0 0 0.0 4.3 15.4 209
15/02/2020 19:40 9.0 87 0.0 0 0.0 4.4 15.8 212
15/02/2020 19:50 9.3 86 0.0 0 0.0 4.7 17.1 210
15/02/2020 20:00 9.6 85 0.0 0 0.0 4.7 17.0 215
15/02/2020 20:10 9.7 84 0.0 0 0.0 4.8 17.1 222
15/02/2020 20:20 10.2 82 0.0 0 0.0 5.4 19.3 224
15/02/2020 20:30 10.2 81 0.0 0 0.0 5.3 19.1 225
15/02/2020 20:40 9.9 83 0.0 0 0.0 4.8 17.4 226
15/02/2020 20:50 10.0 83 0.0 0 0.0 5.5 19.9 227
15/02/2020 21:00 9.8 82 0.0 0 0.0 4.1 14.8 225
15/02/2020 21:10 9.4 83 0.0 0 0.0 4.5 16.3 221
15/02/2020 21:20 9.6 82 0.0 0 0.0 4.5 16.1 224
15/02/2020 21:30 9.1 84 0.0 0 0.0 3.7 13.4 223
15/02/2020 21:40 8.8 85 0.0 0 0.0 3.5 12.6 217
15/02/2020 21:50 8.6 84 0.0 0 0.0 3.8 13.6 211
15/02/2020 22:00 8.8 84 0.0 0 0.0 4.8 17.3 220
15/02/2020 22:10 8.7 84 0.0 0 0.0 4.7 17.0 217
15/02/2020 22:20 8.7 85 0.0 0 0.0 4.8 17.4 225
15/02/2020 22:30 8.8 85 0.0 0 0.0 4.0 14.5 234
15/02/2020 22:40 8.0 87 0.0 0 0.0 4.0 14.3 237
15/02/2020 22:50 8.0 87 0.0 0 0.0 3.8 13.6 232
15/02/2020 23:00 7.4 88 0.0 0 0.0 4.1 14.6 212
15/02/2020 23:10 7.7 86 0.0 0 0.0 4.5 16.2 191
15/02/2020 23:20 9.9 77 0.0 0 0.0 5.5 19.7 173
15/02/2020 23:30 9.4 77 0.0 0 0.0 3.9 14.1 188
15/02/2020 23:40 9.3 79 0.0 0 0.0 3.3 11.8 189
15/02/2020 23:50 9.2 78 0.0 0 0.0 3.2 11.6 204
Anterior Página 1 de 1 Siguiente

NOTA: Tipo de datos según el color:
   - Valores diarios o 10 minutos correctos
   - Valores diarios calculados a partir de un número de datos 10 minutos menor que 144 y mayor que 120, o de un número de datos semihorarios menor que 48 y mayor que 40 (caso de las estaciones de INTIA y del Ministerio)
   - Valores diez minutos estimados


Contacto        Enlaces        Aviso legal